METAR Data
IDs: Format: Raw Decoded Include TAF

Data at: 1401 UTC 14 Dec 2019

KCDH 141355Z AUTO 25003KT M1/4SM FG OVC002 07/06 A2987 RMK AO2
KCDH 141335Z AUTO 00000KT M1/4SM FG OVC003 07/06 A2986 RMK AO2
KCDH 141315Z AUTO 22003KT M1/4SM -UP OVC003 07/06 A2986 RMK AO2
KCDH 141255Z AUTO 21006KT 1/4SM -UP OVC002 07/06 A2985 RMK AO2
KCDH 141235Z AUTO 22004KT 1/4SM FG OVC002 07/06 A2985 RMK AO2
KCDH 141215Z AUTO 00000KT M1/4SM FG OVC002 07/06 A2984 RMK AO2
KCDH 141155Z AUTO VRB03KT M1/4SM FG OVC002 07/06 A2983 RMK AO2
KCDH 141135Z AUTO 00000KT M1/4SM FG OVC002 07/06 A2984 RMK AO2
KCDH 141115Z AUTO 00000KT M1/4SM FG OVC002 07/06 A2984 RMK AO2 VIS M1/4V5
KCDH 141055Z AUTO 00000KT M1/4SM FG OVC002 07/06 A2983 RMK AO2
KCDH 141035Z AUTO 00000KT M1/4SM FG OVC002 06/06 A2983 RMK AO2
KCDH 141015Z AUTO 00000KT M1/4SM FG OVC002 06/06 A2983 RMK AO2
KCDH 140955Z AUTO 00000KT M1/4SM -UP OVC002 06/05 A2984 RMK AO2
KCDH 140935Z AUTO 00000KT M1/4SM -UP OVC002 06/ A2984 RMK AO2
KCDH 140915Z AUTO 00000KT M1/4SM -UP OVC002 06/M05 A2984 RMK AO2
KCDH 140855Z AUTO 00000KT M1/4SM -UP OVC002 05/05 A2984 RMK AO2
KCDH 140835Z AUTO 00000KT M1/4SM -UP OVC002 05/05 A2985 RMK AO2
KCDH 140815Z AUTO 00000KT M1/4SM FG OVC002 05/05 A2984 RMK AO2
KCDH 140755Z AUTO 00000KT M1/4SM FG OVC002 05/05 A2983 RMK AO2
KCDH 140735Z AUTO 00000KT M1/4SM -UP OVC002 05/05 A2984 RMK AO2
KCDH 140715Z AUTO 00000KT M1/4SM -UP OVC002 05/05 A2984 RMK AO2
KCDH 140655Z AUTO 00000KT M1/4SM FG OVC002 04/04 A2983 RMK AO2
KCDH 140635Z AUTO 00000KT 1/4SM FG OVC002 04/03 A2983 RMK AO2
KCDH 140615Z AUTO 00000KT 1/4SM FG OVC002 05/03 A2984 RMK AO2
KCDH 140555Z AUTO 00000KT M1/4SM FG OVC002 05/04 A2984 RMK AO2
KCDH 140535Z AUTO 00000KT 1/4SM FG BKN002 05/04 A2985 RMK AO2
KCDH 140515Z AUTO 00000KT M1/4SM FG OVC002 05/04 A2985 RMK AO2
KCDH 140455Z AUTO 00000KT M1/4SM FG OVC002 05/04 A2986 RMK AO2
KCDH 140435Z AUTO 00000KT 1/2SM FG SCT001 BKN037 06/05 A2985 RMK AO2
KCDH 140415Z AUTO 00000KT M1/4SM FG BKN034 05/06 A2985 RMK AO2
KCDH 140355Z AUTO 00000KT 1/4SM FG VV002 06/06 A2984 RMK AO2
KCDH 140335Z AUTO 00000KT 1/4SM FG BKN037 07/07 A2985 RMK AO2
KCDH 140315Z AUTO 00000KT 1/4SM FG SCT023 OVC036 07/06 A2985 RMK AO2
KCDH 140255Z AUTO 00000KT 1SM BR SCT029 OVC036 08/06 A2986 RMK AO2
KCDH 140235Z AUTO 00000KT 9SM FEW028 BKN038 09/07 A2986 RMK AO2
KCDH 140215Z AUTO 00000KT 10SM BKN033 BKN040 10/08 A2985 RMK AO2
KCDH 140155Z AUTO 00000KT 10SM OVC034 10/08 A2986 RMK AO2
KCDH 140135Z AUTO 00000KT 10SM FEW031 OVC037 10/08 A2986 RMK AO2
KCDH 140115Z AUTO 00000KT 10SM BKN036 OVC049 11/08 A2986 RMK AO2
KCDH 140055Z AUTO 00000KT 10SM BKN035 BKN043 OVC049 11/08 A2985 RMK AO2
KCDH 140035Z AUTO 00000KT 10SM BKN036 OVC048 11/08 A2985 RMK AO2
KCDH 140015Z AUTO 00000KT 10SM FEW028 BKN037 OVC050 11/08 A2985 RMK AO2
KCDH 132355Z AUTO 00000KT 10SM BKN028 BKN040 OVC050 12/09 A2984 RMK AO2
KCDH 132335Z AUTO 00000KT 10SM BKN029 OVC042 12/08 A2984 RMK AO2
KCDH 132315Z AUTO 00000KT 9SM FEW024 BKN043 12/08 A2983 RMK AO2
KCDH 132255Z AUTO 00000KT 10SM OVC046 13/08 A2982 RMK AO2
KCDH 132235Z AUTO 00000KT 10SM BKN048 14/08 A2982 RMK AO2
KCDH 132215Z AUTO 00000KT 10SM CLR 14/08 A2982 RMK AO2
KCDH 132155Z AUTO 13007KT 10SM CLR 14/08 A2981 RMK AO2
KCDH 132135Z AUTO 15004KT 10SM CLR 15/08 A2982 RMK AO2
KCDH 132115Z AUTO 13004KT 9SM FEW032 FEW070 15/08 A2982 RMK AO2
KCDH 132055Z AUTO 14007KT 9SM FEW023 BKN033 OVC070 15/08 A2982 RMK AO2
KCDH 132035Z AUTO VRB04G11KT 8SM BKN023 SCT035 OVC065 15/07 A2983 RMK AO2
KCDH 132015Z AUTO 14006KT 10SM SCT024 BKN048 14/07 A2983 RMK AO2
KCDH 131955Z AUTO 15005KT 9SM FEW023 BKN048 BKN070 14/07 A2984 RMK AO2
KCDH 131935Z AUTO 00000KT 9SM SCT046 BKN060 15/07 A2985 RMK AO2
KCDH 131915Z AUTO 00000KT 10SM FEW045 BKN060 14/07 A2986 RMK AO2
KCDH 131855Z AUTO 00000KT 9SM FEW031 FEW045 FEW055 15/07 A2987 RMK AO2
KCDH 131835Z AUTO VRB04KT 10SM 13/07 A2988 RMK AO2
KCDH 131635Z AUTO 00000KT 9SM OVC039 09/05 A2998 RMK AO2
KCDH 131615Z AUTO 00000KT 9SM SCT032 BKN039 OVC075 08/05 A2998 RMK AO2
KCDH 131555Z AUTO 00000KT 9SM SCT031 SCT038 BKN075 08/05 A2998 RMK AO2
KCDH 131535Z AUTO 00000KT 9SM FEW003 SCT038 BKN070 07/05 A2998 RMK AO2
KCDH 131515Z AUTO 00000KT 7SM BKN003 BKN037 OVC070 06/04 A2998 RMK AO2
KCDH 131455Z AUTO 00000KT 1/4SM FG OVC003 05/03 A2999 RMK AO2
KCDH 131435Z AUTO 00000KT 1/4SM FG OVC003 04/03 A3000 RMK AO2
KCDH 131415Z AUTO 00000KT M1/4SM FG OVC003 03/02 A3000 RMK AO2
KCDH 131355Z AUTO 00000KT M1/4SM -UP OVC003 03/02 A3000 RMK AO2
KCDH 131335Z AUTO 00000KT M1/4SM -UP OVC003 03/01 A3000 RMK AO2
KCDH 131315Z AUTO 00000KT 1SM BR OVC003 02/00 A2999 RMK AO2 VIS 1/4V5
KCDH 131255Z AUTO 00000KT 10SM OVC003 02/00 A3000 RMK AO2
KCDH 131235Z AUTO 00000KT 9SM OVC003 01/M00 A3000 RMK AO2
KCDH 131215Z AUTO 00000KT 10SM SCT003 SCT037 01/M00 A3000 RMK AO2
KCDH 131155Z AUTO 00000KT 10SM CLR 01/M00 A3000 RMK AO2
KCDH 131135Z AUTO 00000KT 10SM CLR 01/M00 A3001 RMK AO2
KCDH 131115Z AUTO 00000KT 10SM CLR 01/M00 A3001 RMK AO2
KCDH 131055Z AUTO 00000KT 10SM CLR 01/M00 A3002 RMK AO2
KCDH 131035Z AUTO 00000KT 9SM CLR 01/M00 A3002 RMK AO2
KCDH 131015Z AUTO 00000KT 10SM CLR 01/M00 A3002 RMK AO2
KCDH 130955Z AUTO 00000KT 10SM CLR 01/M00 A3003 RMK AO2
KCDH 130935Z AUTO 00000KT 10SM FEW080 02/M00 A3003 RMK AO2
KCDH 130915Z AUTO 00000KT 10SM CLR 02/M00 A3004 RMK AO2
KCDH 130855Z AUTO 00000KT 10SM SCT035 SCT080 01/M00 A3005 RMK AO2
KCDH 130835Z AUTO 00000KT 10SM BKN035 BKN080 01/M00 A3006 RMK AO2
KCDH 130815Z AUTO 00000KT 10SM FEW026 SCT035 BKN085 01/M00 A3007 RMK AO2
KCDH 130755Z AUTO 00000KT 10SM BKN085 OVC110 01/M00 A3007 RMK AO2
KCDH 130735Z AUTO 00000KT 10SM BKN027 OVC100 01/M00 A3008 RMK AO2
KCDH 130715Z AUTO 00000KT 10SM BKN027 BKN085 OVC100 01/M01 A3008 RMK AO2
KCDH 130655Z AUTO 00000KT 10SM BKN085 BKN110 01/M01 A3009 RMK AO2
KCDH 130635Z AUTO 00000KT 10SM FEW024 FEW030 BKN100 01/M01 A3009 RMK AO2
KCDH 130615Z AUTO 00000KT 10SM FEW025 OVC095 01/M01 A3009 RMK AO2
KCDH 130555Z AUTO 00000KT 10SM SCT090 01/M01 A3010 RMK AO2
KCDH 130535Z AUTO 00000KT 9SM CLR 00/M01 A3010 RMK AO2
KCDH 130515Z AUTO 00000KT 10SM CLR 01/M01 A3011 RMK AO2
KCDH 130455Z AUTO 00000KT 10SM CLR 01/M01 A3011 RMK AO2
KCDH 130435Z AUTO 00000KT 10SM CLR 01/M01 A3012 RMK AO2
KCDH 130415Z AUTO 00000KT 10SM CLR 01/M00 A3012 RMK AO2
KCDH 130355Z AUTO 00000KT 10SM CLR 01/M00 A3011 RMK AO2
KCDH 130335Z AUTO 00000KT 10SM CLR 01/M00 A3012 RMK AO2
KCDH 130315Z AUTO 00000KT 10SM CLR 01/M00 A3013 RMK AO2
KCDH 130255Z AUTO 00000KT 10SM CLR 02/00 A3013 RMK AO2
KCDH 130235Z AUTO 00000KT 10SM CLR 02/M00 A3014 RMK AO2
KCDH 130215Z AUTO 00000KT 10SM CLR 02/00 A3015 RMK AO2